createdAt,value
2023-04-16T00:00:28.990Z,60.10
2023-04-16T00:03:01.643Z,60.10
2023-04-16T00:05:34.392Z,60.10
2023-04-16T00:08:07.042Z,60.10
2023-04-16T00:10:39.706Z,60.20
2023-04-16T00:13:12.175Z,60.20
2023-04-16T00:15:44.777Z,60.10
2023-04-16T00:18:17.301Z,60.10
2023-04-16T00:20:50.954Z,60.20
2023-04-16T00:23:26.479Z,60.10
2023-04-16T00:26:00.345Z,60.20
2023-04-16T00:28:33.038Z,60.20
2023-04-16T00:31:05.704Z,60.20
2023-04-16T00:33:38.254Z,60.20
2023-04-16T00:36:10.730Z,60.20
2023-04-16T00:38:43.358Z,60.20
2023-04-16T00:41:28.296Z,60.10
2023-04-16T00:44:05.179Z,60.30
2023-04-16T00:46:39.597Z,60.30
2023-04-16T00:49:12.128Z,60.10
2023-04-16T00:51:44.990Z,60.00
2023-04-16T00:54:17.731Z,60.00
2023-04-16T00:56:51.393Z,60.00
2023-04-16T00:59:23.933Z,60.10
2023-04-16T01:01:56.730Z,60.10
2023-04-16T01:04:31.072Z,60.00
2023-04-16T01:07:04.016Z,60.00
2023-04-16T01:09:36.708Z,60.00
2023-04-16T01:12:09.281Z,60.00
2023-04-16T01:14:41.910Z,60.00
2023-04-16T01:17:14.602Z,60.00
2023-04-16T01:19:47.210Z,59.90
2023-04-16T01:22:19.687Z,60.00
2023-04-16T01:24:52.210Z,60.00
2023-04-16T01:27:24.684Z,59.90
2023-04-16T01:29:57.322Z,59.90
2023-04-16T01:32:41.770Z,59.90
2023-04-16T01:35:14.344Z,60.00
2023-04-16T01:37:47.001Z,60.00
2023-04-16T01:40:19.972Z,59.90
2023-04-16T01:42:52.653Z,59.90
2023-04-16T01:45:25.875Z,59.90
2023-04-16T01:47:58.589Z,59.90
2023-04-16T01:50:35.059Z,59.90
2023-04-16T01:53:07.712Z,59.90
2023-04-16T01:55:40.358Z,59.90
2023-04-16T01:58:15.024Z,59.90
2023-04-16T02:00:47.728Z,59.90
2023-04-16T02:03:20.722Z,60.00
2023-04-16T02:05:53.486Z,60.00
2023-04-16T02:08:26.095Z,60.00
2023-04-16T02:11:00.224Z,60.10
2023-04-16T02:13:32.765Z,60.10
2023-04-16T02:16:05.757Z,60.10
2023-04-16T02:18:55.558Z,60.20
2023-04-16T02:21:29.478Z,60.10
2023-04-16T02:24:02.063Z,61.00
2023-04-16T02:26:36.344Z,60.20
2023-04-16T02:29:15.159Z,60.20
2023-04-16T02:31:52.073Z,60.20
2023-04-16T02:34:25.908Z,60.20
2023-04-16T02:36:59.235Z,60.20
2023-04-16T02:39:32.114Z,60.20
2023-04-16T02:42:04.723Z,60.20
2023-04-16T02:44:37.303Z,60.20
2023-04-16T02:47:10.042Z,60.30
2023-04-16T02:49:42.599Z,60.30
2023-04-16T02:52:15.745Z,60.30
2023-04-16T02:54:48.236Z,60.40
2023-04-16T02:57:21.207Z,60.20
2023-04-16T02:59:53.997Z,60.30
2023-04-16T03:02:27.661Z,60.20
2023-04-16T03:05:04.267Z,60.40
2023-04-16T03:07:36.832Z,60.50
2023-04-16T03:10:09.860Z,60.40
2023-04-16T03:12:42.377Z,60.50
2023-04-16T03:15:14.934Z,60.50
2023-04-16T03:17:47.529Z,60.50
2023-04-16T03:20:20.186Z,60.60
2023-04-16T03:22:52.994Z,60.50
2023-04-16T03:25:25.673Z,60.40
2023-04-16T03:27:58.305Z,60.50
2023-04-16T03:30:31.052Z,60.40
2023-04-16T03:33:03.657Z,60.30
2023-04-16T03:35:36.633Z,60.30
2023-04-16T03:38:09.258Z,60.20
2023-04-16T03:40:41.843Z,60.20
2023-04-16T03:43:14.866Z,60.20
2023-04-16T03:45:48.798Z,60.00
2023-04-16T03:48:22.633Z,59.90
2023-04-16T03:51:02.824Z,59.80
2023-04-16T03:53:44.269Z,59.90
2023-04-16T03:56:32.129Z,59.80
2023-04-16T03:59:13.263Z,59.80
2023-04-16T04:01:50.219Z,59.70
2023-04-16T04:04:23.677Z,59.60
2023-04-16T04:06:56.265Z,59.50
2023-04-16T04:09:53.310Z,59.50
2023-04-16T04:12:26.527Z,59.50
2023-04-16T04:14:59.098Z,59.20
2023-04-16T04:17:32.907Z,59.30
2023-04-16T04:20:08.033Z,59.20
2023-04-16T04:22:42.086Z,59.20
2023-04-16T04:25:14.846Z,59.20
2023-04-16T04:27:47.547Z,59.10
2023-04-16T04:30:20.147Z,59.00
2023-04-16T04:32:52.713Z,59.10
2023-04-16T04:35:25.503Z,58.90
2023-04-16T04:37:58.680Z,58.80
2023-04-16T04:40:32.925Z,58.70
2023-04-16T04:43:05.517Z,58.70
2023-04-16T04:45:39.476Z,58.70
2023-04-16T04:48:12.476Z,58.70
2023-04-16T04:50:46.481Z,58.70
2023-04-16T04:53:19.848Z,58.70
2023-04-16T04:55:54.225Z,58.70
2023-04-16T04:58:30.077Z,58.70
2023-04-16T05:01:02.775Z,58.60
2023-04-16T05:03:35.484Z,58.60
2023-04-16T05:06:08.282Z,58.70
2023-04-16T05:08:41.048Z,58.50
2023-04-16T05:11:13.498Z,58.50
2023-04-16T05:13:46.059Z,58.60
2023-04-16T05:16:18.696Z,58.60
2023-04-16T05:18:51.349Z,58.60
2023-04-16T05:21:24.070Z,58.50
2023-04-16T05:23:56.593Z,58.50
2023-04-16T05:26:29.153Z,58.60
2023-04-16T05:29:01.770Z,58.80
2023-04-16T05:31:35.636Z,59.10
2023-04-16T05:34:08.234Z,59.40
2023-04-16T05:36:40.776Z,59.70
2023-04-16T05:39:13.351Z,59.90
2023-04-16T05:41:45.970Z,60.30
2023-04-16T05:44:18.454Z,61.30
2023-04-16T05:46:51.559Z,61.40
2023-04-16T05:49:24.155Z,61.90
2023-04-16T05:51:56.734Z,62.50
2023-04-16T05:54:30.666Z,62.90
2023-04-16T05:57:04.038Z,63.30
2023-04-16T05:59:36.499Z,63.50
2023-04-16T06:02:09.226Z,63.40
2023-04-16T06:04:41.951Z,63.40
2023-04-16T06:07:14.658Z,63.50
2023-04-16T06:09:47.176Z,63.60
2023-04-16T06:12:19.774Z,63.70
2023-04-16T06:14:52.374Z,64.00
2023-04-16T06:17:24.961Z,64.10
2023-04-16T06:19:57.494Z,64.40
2023-04-16T06:22:30.265Z,64.60
2023-04-16T06:25:02.983Z,64.60
2023-04-16T06:27:35.640Z,64.80
2023-04-16T06:30:15.494Z,65.10
2023-04-16T06:32:48.275Z,65.30
2023-04-16T06:35:20.935Z,65.50
2023-04-16T06:37:53.489Z,65.70
2023-04-16T06:40:26.377Z,65.90
2023-04-16T06:42:58.995Z,66.30
2023-04-16T06:45:31.949Z,66.40
2023-04-16T06:48:05.488Z,66.70
2023-04-16T06:50:38.044Z,66.80
2023-04-16T06:53:10.754Z,67.80
2023-04-16T06:55:43.359Z,67.10
2023-04-16T06:58:15.914Z,67.10
2023-04-16T07:00:48.648Z,67.30
2023-04-16T07:03:21.387Z,67.30
2023-04-16T07:05:54.083Z,67.60
2023-04-16T07:08:26.685Z,67.90
2023-04-16T07:11:24.272Z,68.10
2023-04-16T07:13:57.998Z,68.30
2023-04-16T07:16:30.527Z,68.60
2023-04-16T07:19:03.164Z,68.80
2023-04-16T07:21:35.803Z,68.90
2023-04-16T07:24:08.354Z,69.00
2023-04-16T07:26:41.309Z,69.10
2023-04-16T07:29:13.882Z,69.20
2023-04-16T07:31:46.707Z,69.40
2023-04-16T07:34:19.380Z,69.60
2023-04-16T07:36:51.906Z,69.90
2023-04-16T07:39:24.607Z,70.10
2023-04-16T07:41:57.126Z,70.10
2023-04-16T07:44:30.253Z,70.10
2023-04-16T07:47:04.196Z,70.10
2023-04-16T07:49:38.096Z,70.20
2023-04-16T07:52:10.797Z,70.30
2023-04-16T07:54:43.381Z,70.30
2023-04-16T07:57:16.786Z,70.40
2023-04-16T07:59:51.922Z,70.50
2023-04-16T08:02:24.614Z,70.20
2023-04-16T08:04:57.455Z,70.10
2023-04-16T08:07:30.423Z,70.10
2023-04-16T08:10:03.094Z,70.20
2023-04-16T08:12:36.068Z,70.10
2023-04-16T08:15:09.037Z,70.10
2023-04-16T08:17:41.689Z,70.00
2023-04-16T08:20:17.607Z,69.80
2023-04-16T08:22:53.387Z,69.50
2023-04-16T08:25:26.107Z,69.10
2023-04-16T08:27:58.637Z,69.00
2023-04-16T08:30:31.330Z,68.80
2023-04-16T08:33:06.558Z,68.40
2023-04-16T08:35:39.173Z,68.20
2023-04-16T08:38:11.762Z,67.90
2023-04-16T08:40:45.508Z,67.90
2023-04-16T08:43:19.607Z,67.70
2023-04-16T08:45:56.735Z,67.20
2023-04-16T08:48:34.405Z,67.00
2023-04-16T08:51:10.209Z,66.50
2023-04-16T08:53:57.761Z,66.20
2023-04-16T08:56:36.110Z,66.00
2023-04-16T08:59:10.614Z,65.70
2023-04-16T09:01:43.990Z,65.40
2023-04-16T09:04:16.673Z,64.90
2023-04-16T09:06:50.148Z,65.00
2023-04-16T09:09:23.754Z,64.50
2023-04-16T09:11:56.836Z,64.10
2023-04-16T09:14:29.292Z,63.70
2023-04-16T09:17:02.822Z,64.10
2023-04-16T09:19:35.800Z,63.60
2023-04-16T09:22:08.460Z,63.50
2023-04-16T09:24:42.159Z,63.40
2023-04-16T09:27:14.702Z,63.30
2023-04-16T09:29:47.566Z,63.20
2023-04-16T09:32:27.489Z,63.10
2023-04-16T09:35:02.729Z,62.80
2023-04-16T09:37:36.827Z,62.80
2023-04-16T09:40:09.960Z,63.00
2023-04-16T09:42:42.245Z,63.10
2023-04-16T09:45:14.929Z,63.50
2023-04-16T09:47:47.567Z,63.20
2023-04-16T09:50:21.312Z,63.20
2023-04-16T09:53:05.033Z,63.30
2023-04-16T09:55:40.588Z,63.20
2023-04-16T09:58:18.576Z,63.60
2023-04-16T10:00:58.214Z,63.20
2023-04-16T10:03:32.710Z,63.00
2023-04-16T10:06:16.136Z,63.00
2023-04-16T10:08:58.951Z,62.90
2023-04-16T10:11:31.704Z,62.80
2023-04-16T10:14:04.355Z,62.90
2023-04-16T10:16:37.363Z,62.70
2023-04-16T10:19:10.285Z,62.60
2023-04-16T10:21:43.559Z,62.40
2023-04-16T10:24:18.327Z,62.30
2023-04-16T10:26:55.710Z,62.40
2023-04-16T10:29:32.839Z,61.90
2023-04-16T10:32:07.578Z,62.20
2023-04-16T10:34:40.866Z,60.80
2023-04-16T10:37:13.495Z,60.60
2023-04-16T10:39:50.100Z,60.30
2023-04-16T10:42:22.774Z,60.10
2023-04-16T10:45:00.874Z,60.10
2023-04-16T10:47:40.151Z,60.00
2023-04-16T10:50:18.754Z,60.10
2023-04-16T10:53:40.401Z,60.20
2023-04-16T10:56:13.345Z,60.50
2023-04-16T10:58:46.149Z,60.60
2023-04-16T11:01:19.256Z,60.60
2023-04-16T11:03:52.486Z,60.60
2023-04-16T11:06:26.896Z,60.60
2023-04-16T11:08:59.455Z,60.60
2023-04-16T11:11:39.790Z,60.60
2023-04-16T11:14:13.083Z,60.60
2023-04-16T11:16:45.935Z,60.60
2023-04-16T11:19:18.501Z,60.60
2023-04-16T11:21:53.845Z,60.80
2023-04-16T11:24:32.687Z,60.60
2023-04-16T11:27:05.451Z,60.50
2023-04-16T11:29:37.957Z,60.40
2023-04-16T11:32:10.867Z,60.30
2023-04-16T11:34:47.859Z,60.10
2023-04-16T11:37:39.274Z,59.90
2023-04-16T11:40:12.736Z,59.60
2023-04-16T11:42:45.274Z,59.60
2023-04-16T11:45:19.670Z,59.60
2023-04-16T11:47:55.566Z,59.50
2023-04-16T11:50:29.223Z,59.40
2023-04-16T11:53:06.685Z,59.20
2023-04-16T11:55:45.903Z,59.10
2023-04-16T11:58:19.456Z,59.00
2023-04-16T12:00:57.061Z,59.00
2023-04-16T12:03:47.151Z,59.70
2023-04-16T12:06:19.878Z,58.80
2023-04-16T12:08:52.370Z,58.60
2023-04-16T12:11:41.123Z,58.50
2023-04-16T12:14:13.961Z,58.10
2023-04-16T12:16:46.571Z,58.00
2023-04-16T12:19:19.184Z,57.90
2023-04-16T12:21:51.762Z,57.90
2023-04-16T12:24:27.669Z,57.80
2023-04-16T12:27:03.418Z,57.70
2023-04-16T12:29:36.118Z,57.50
2023-04-16T12:32:23.575Z,57.50
2023-04-16T12:34:56.176Z,57.30
2023-04-16T12:37:28.703Z,57.30
2023-04-16T12:40:01.228Z,57.30
2023-04-16T12:42:37.437Z,57.20
2023-04-16T12:45:09.938Z,57.00
2023-04-16T12:47:42.541Z,57.10
2023-04-16T12:50:15.072Z,57.10
2023-04-16T12:52:47.679Z,57.00
2023-04-16T12:55:20.277Z,57.00
2023-04-16T12:57:53.340Z,57.10
2023-04-16T13:00:25.652Z,57.00
2023-04-16T13:02:58.515Z,57.10
2023-04-16T13:05:31.140Z,56.90
2023-04-16T13:08:03.930Z,56.90
2023-04-16T13:10:36.433Z,56.90
2023-04-16T13:13:09.062Z,56.90
2023-04-16T13:15:41.594Z,56.90
2023-04-16T13:18:14.161Z,56.90
2023-04-16T13:20:46.620Z,56.90
2023-04-16T13:23:19.141Z,56.90
2023-04-16T13:25:54.947Z,56.90
2023-04-16T13:28:27.455Z,56.90
2023-04-16T13:31:00.306Z,56.80
2023-04-16T13:33:34.501Z,56.70
2023-04-16T13:36:07.339Z,56.60
2023-04-16T13:38:40.026Z,56.70
2023-04-16T13:41:12.535Z,56.70
2023-04-16T13:43:45.023Z,56.70
2023-04-16T13:46:19.107Z,56.60
2023-04-16T13:48:51.590Z,56.60
2023-04-16T13:51:24.231Z,56.60
2023-04-16T13:53:56.704Z,56.60
2023-04-16T13:56:29.462Z,56.70
2023-04-16T13:59:02.076Z,56.90
2023-04-16T14:01:34.826Z,57.00
2023-04-16T14:04:07.650Z,57.00
2023-04-16T14:06:40.447Z,57.00
2023-04-16T14:09:13.255Z,57.90
2023-04-16T14:11:45.873Z,57.00
2023-04-16T14:14:18.505Z,57.00
2023-04-16T14:16:51.183Z,57.00
2023-04-16T14:19:23.744Z,56.90
2023-04-16T14:21:56.275Z,56.70
2023-04-16T14:24:28.702Z,56.60
2023-04-16T14:27:01.308Z,56.60
2023-04-16T14:29:33.852Z,57.00
2023-04-16T14:32:06.950Z,56.40
2023-04-16T14:34:39.423Z,56.30
2023-04-16T14:37:12.038Z,56.30
2023-04-16T14:39:44.615Z,56.30
2023-04-16T14:42:17.131Z,56.40
2023-04-16T14:44:49.709Z,56.50
2023-04-16T14:47:22.508Z,56.70
2023-04-16T14:49:55.088Z,56.70
2023-04-16T14:52:27.913Z,56.60
2023-04-16T14:55:00.669Z,56.50
2023-04-16T14:57:33.811Z,56.50
2023-04-16T15:00:10.889Z,56.50
2023-04-16T15:02:43.678Z,56.10
2023-04-16T15:05:17.296Z,56.40
2023-04-16T15:07:49.828Z,56.80
2023-04-16T15:10:22.375Z,57.10
2023-04-16T15:12:54.925Z,57.30
2023-04-16T15:15:27.483Z,57.50
2023-04-16T15:18:00.612Z,57.90
2023-04-16T15:20:33.406Z,58.20
2023-04-16T15:23:06.137Z,58.50
2023-04-16T15:25:38.683Z,58.70
2023-04-16T15:28:11.133Z,59.10
2023-04-16T15:30:44.414Z,59.20
2023-04-16T15:33:17.029Z,59.40
2023-04-16T15:35:51.717Z,59.60
2023-04-16T15:38:24.272Z,59.60
2023-04-16T15:41:00.882Z,59.70
2023-04-16T15:43:33.368Z,59.80
2023-04-16T15:46:05.993Z,60.00
2023-04-16T15:48:38.560Z,60.10
2023-04-16T15:51:11.923Z,60.10
2023-04-16T15:53:45.490Z,60.20
2023-04-16T15:56:18.134Z,60.30
2023-04-16T15:58:50.629Z,60.50
2023-04-16T16:01:23.393Z,60.50
2023-04-16T16:03:56.179Z,60.80
2023-04-16T16:06:28.986Z,60.80
2023-04-16T16:09:02.466Z,60.80
2023-04-16T16:11:41.285Z,60.80
2023-04-16T16:14:18.704Z,61.10
2023-04-16T16:16:51.714Z,61.30
2023-04-16T16:19:24.211Z,61.40
2023-04-16T16:21:59.790Z,61.40
2023-04-16T16:24:32.515Z,61.10
2023-04-16T16:27:05.721Z,61.20
2023-04-16T16:29:38.005Z,61.30
2023-04-16T16:32:11.434Z,61.70
2023-04-16T16:34:43.948Z,61.40
2023-04-16T16:37:16.571Z,61.30
2023-04-16T16:39:49.224Z,61.40
2023-04-16T16:42:21.884Z,61.80
2023-04-16T16:44:56.031Z,61.20
2023-04-16T16:47:30.237Z,61.10
2023-04-16T16:50:03.270Z,60.90
2023-04-16T16:52:36.041Z,60.80
2023-04-16T16:55:11.314Z,60.80
2023-04-16T16:57:43.873Z,60.80
2023-04-16T17:00:17.170Z,61.00
2023-04-16T17:02:51.468Z,61.10
2023-04-16T17:05:24.125Z,61.30
2023-04-16T17:07:56.666Z,61.50
2023-04-16T17:10:29.757Z,61.70
2023-04-16T17:13:02.534Z,61.80
2023-04-16T17:15:35.046Z,61.80
2023-04-16T17:18:07.590Z,61.90
2023-04-16T17:20:40.302Z,62.00
2023-04-16T17:23:12.913Z,62.10
2023-04-16T17:25:45.798Z,62.10
2023-04-16T17:28:18.395Z,62.20
2023-04-16T17:30:56.382Z,62.30
2023-04-16T17:33:28.873Z,62.40
2023-04-16T17:36:01.554Z,62.50
2023-04-16T17:38:34.868Z,62.50
2023-04-16T17:41:07.361Z,62.50
2023-04-16T17:43:39.836Z,62.60
2023-04-16T17:46:12.400Z,62.60
2023-04-16T17:48:45.283Z,62.70
2023-04-16T17:51:17.827Z,63.60
2023-04-16T17:53:51.058Z,62.70
2023-04-16T17:56:23.484Z,62.90
2023-04-16T17:58:55.938Z,63.30
2023-04-16T18:01:28.701Z,62.80
2023-04-16T18:04:01.552Z,62.80
2023-04-16T18:06:34.334Z,62.90
2023-04-16T18:09:07.252Z,63.00
2023-04-16T18:11:40.034Z,63.00
2023-04-16T18:14:16.892Z,63.00
2023-04-16T18:16:49.944Z,63.00
2023-04-16T18:19:22.432Z,62.60
2023-04-16T18:21:55.658Z,62.10
2023-04-16T18:24:28.543Z,61.80
2023-04-16T18:27:01.732Z,61.80
2023-04-16T18:29:34.178Z,61.40
2023-04-16T18:32:09.918Z,61.40
2023-04-16T18:34:44.450Z,61.10
2023-04-16T18:37:17.650Z,60.90
2023-04-16T18:39:50.181Z,60.80
2023-04-16T18:42:23.778Z,60.70
2023-04-16T18:44:56.497Z,60.60
2023-04-16T18:47:28.998Z,60.50
2023-04-16T18:50:02.059Z,60.50
2023-04-16T18:52:34.593Z,60.40
2023-04-16T18:55:07.617Z,60.30
2023-04-16T18:57:40.515Z,60.20
2023-04-16T19:00:13.639Z,60.10
2023-04-16T19:02:46.455Z,60.00
2023-04-16T19:05:20.592Z,59.90
2023-04-16T19:07:53.172Z,59.80
2023-04-16T19:10:28.864Z,59.80
2023-04-16T19:13:05.632Z,59.80
2023-04-16T19:15:38.273Z,59.80
2023-04-16T19:18:10.821Z,60.00
2023-04-16T19:20:43.405Z,60.00
2023-04-16T19:23:16.092Z,60.10
2023-04-16T19:25:49.102Z,60.20
2023-04-16T19:28:21.747Z,60.20
2023-04-16T19:30:54.401Z,60.30
2023-04-16T19:33:26.883Z,60.30
2023-04-16T19:36:00.433Z,60.40
2023-04-16T19:38:33.056Z,60.40
2023-04-16T19:41:05.612Z,60.40
2023-04-16T19:43:38.201Z,60.50
2023-04-16T19:46:10.959Z,60.40
2023-04-16T19:48:43.536Z,60.50
2023-04-16T19:51:16.201Z,60.60
2023-04-16T19:53:48.735Z,60.60
2023-04-16T19:56:21.376Z,60.60
2023-04-16T19:58:53.973Z,60.70
2023-04-16T20:01:26.635Z,60.70
2023-04-16T20:03:59.257Z,60.70
2023-04-16T20:06:31.995Z,60.70
2023-04-16T20:09:05.191Z,60.70
2023-04-16T20:11:37.659Z,60.70
2023-04-16T20:14:10.200Z,60.70
2023-04-16T20:16:43.931Z,60.70
2023-04-16T20:19:18.643Z,60.70
2023-04-16T20:21:51.154Z,60.60
2023-04-16T20:24:24.209Z,60.50
2023-04-16T20:26:56.852Z,60.20
2023-04-16T20:29:29.308Z,60.10
2023-04-16T20:32:01.909Z,59.90
2023-04-16T20:34:34.610Z,59.70
2023-04-16T20:37:07.149Z,59.60
2023-04-16T20:39:40.282Z,59.50
2023-04-16T20:42:13.027Z,59.40
2023-04-16T20:44:50.756Z,59.50
2023-04-16T20:47:23.267Z,59.30
2023-04-16T20:49:55.899Z,59.10
2023-04-16T20:52:28.375Z,59.10
2023-04-16T20:55:00.948Z,60.00
2023-04-16T20:57:33.368Z,58.90
2023-04-16T21:00:09.751Z,58.80
2023-04-16T21:02:42.361Z,58.70
2023-04-16T21:05:15.058Z,58.70
2023-04-16T21:07:47.536Z,58.60
2023-04-16T21:10:20.501Z,58.50
2023-04-16T21:12:53.075Z,58.40
2023-04-16T21:15:25.688Z,58.40
2023-04-16T21:17:58.171Z,58.40
2023-04-16T21:20:30.804Z,58.30
2023-04-16T21:23:04.718Z,58.30
2023-04-16T21:25:37.312Z,59.20
2023-04-16T21:28:09.825Z,58.20
2023-04-16T21:30:42.412Z,58.20
2023-04-16T21:33:19.675Z,58.20
2023-04-16T21:35:57.522Z,58.20
2023-04-16T21:38:36.592Z,58.10
2023-04-16T21:41:09.223Z,57.80
2023-04-16T21:43:41.637Z,57.90
2023-04-16T21:46:14.247Z,58.70
2023-04-16T21:48:48.645Z,57.80
2023-04-16T21:51:29.318Z,57.70
2023-04-16T21:54:01.994Z,57.70
2023-04-16T21:56:34.543Z,57.80
2023-04-16T21:59:07.056Z,57.70
2023-04-16T22:01:39.590Z,57.70
2023-04-16T22:04:12.485Z,57.60
2023-04-16T22:06:46.483Z,57.60
2023-04-16T22:09:18.929Z,57.50
2023-04-16T22:11:52.725Z,57.50
2023-04-16T22:14:26.067Z,57.50
2023-04-16T22:16:58.950Z,57.40
2023-04-16T22:19:31.949Z,57.40
2023-04-16T22:22:04.508Z,57.40
2023-04-16T22:24:37.005Z,57.40
2023-04-16T22:27:09.603Z,57.40
2023-04-16T22:29:42.106Z,57.40
2023-04-16T22:32:14.731Z,57.50
2023-04-16T22:34:47.196Z,57.50
2023-04-16T22:37:19.756Z,57.40
2023-04-16T22:39:52.192Z,57.50
2023-04-16T22:42:24.870Z,57.50
2023-04-16T22:44:57.450Z,57.50
2023-04-16T22:47:30.081Z,57.50
2023-04-16T22:50:03.566Z,57.50
2023-04-16T22:52:36.198Z,57.50
2023-04-16T22:55:09.160Z,57.50
2023-04-16T22:57:42.113Z,57.40
2023-04-16T23:00:16.888Z,57.40
2023-04-16T23:02:49.496Z,57.40
2023-04-16T23:05:22.265Z,57.30
2023-04-16T23:07:54.758Z,57.30
2023-04-16T23:10:28.107Z,57.30
2023-04-16T23:13:00.998Z,57.40
2023-04-16T23:15:33.595Z,57.40
2023-04-16T23:18:06.294Z,57.40
2023-04-16T23:20:38.993Z,57.50
2023-04-16T23:23:11.423Z,57.50
2023-04-16T23:25:44.046Z,57.60
2023-04-16T23:28:16.725Z,57.60
2023-04-16T23:30:53.217Z,57.50
2023-04-16T23:33:25.768Z,57.50
2023-04-16T23:35:58.294Z,57.60
2023-04-16T23:38:31.091Z,57.60
2023-04-16T23:41:03.590Z,57.60
2023-04-16T23:43:36.687Z,57.70
2023-04-16T23:46:09.207Z,57.70
2023-04-16T23:48:41.852Z,57.70
2023-04-16T23:51:14.430Z,57.70
2023-04-16T23:53:46.979Z,57.70
2023-04-16T23:56:19.553Z,57.80
2023-04-16T23:58:52.204Z,57.80
